Time;durP1;ratioP1;P1;durP2;ratioP2;P2;SDS_P1;SDS_P2;PMS_P1;PMS_P2;Temp;Humidity;BMP_temperature;BMP_pressure;BME280_temperature;BME280_humidity;BME280_pressure;Samples;Min_cycle;Max_cycle;Signal;HPM_P1;HPM_P2
2022/11/12 00:02:18;;;;;;;1.63;1.50;;;;;;;;;;4950054;28;20189;-76
2022/11/12 00:04:44;;;;;;;1.50;1.40;;;;;;;;;;4948031;28;20185;-77
2022/11/12 00:07:09;;;;;;;1.73;1.60;;;;;;;;;;4950570;29;20181;-77
2022/11/12 00:09:34;;;;;;;2.07;1.77;;;;;;;;;;4951509;28;20198;-77
2022/11/12 00:11:59;;;;;;;1.60;1.50;;;;;;;;;;4951502;28;20187;-76
2022/11/12 00:14:24;;;;;;;1.73;1.50;;;;;;;;;;4951830;29;20186;-77
2022/11/12 00:16:50;;;;;;;2.57;1.43;;;;;;;;;;4967884;28;20221;-76
2022/11/12 00:19:15;;;;;;;1.80;1.70;;;;;;;;;;4952074;28;20247;-76
2022/11/12 00:21:40;;;;;;;2.17;1.77;;;;;;;;;;4951387;28;20184;-76
2022/11/12 00:24:05;;;;;;;1.93;1.77;;;;;;;;;;4970203;28;20376;-76
2022/11/12 00:26:31;;;;;;;2.23;1.80;;;;;;;;;;4975672;28;20185;-77
2022/11/12 00:28:56;;;;;;;1.87;1.77;;;;;;;;;;4958630;28;20287;-77
2022/11/12 00:31:21;;;;;;;1.70;1.60;;;;;;;;;;4958966;28;20198;-77
2022/11/12 00:33:46;;;;;;;1.60;1.50;;;;;;;;;;4955909;28;20185;-77
2022/11/12 00:36:12;;;;;;;1.80;1.70;;;;;;;;;;4952131;28;20186;-77
2022/11/12 00:38:37;;;;;;;3.30;1.60;;;;;;;;;;4954413;28;20184;-76
2022/11/12 00:41:02;;;;;;;1.70;1.60;;;;;;;;;;4954274;28;20252;-77
2022/11/12 00:43:27;;;;;;;2.20;1.60;;;;;;;;;;4955374;28;20271;-76
2022/11/12 00:45:52;;;;;;;3.03;1.70;;;;;;;;;;4966357;28;20220;-77
2022/11/12 00:48:18;;;;;;;1.73;1.63;;;;;;;;;;4951141;28;20275;-77
2022/11/12 00:50:43;;;;;;;1.87;1.60;;;;;;;;;;4952943;29;20233;-76
2022/11/12 00:53:08;;;;;;;2.30;1.73;;;;;;;;;;4955888;29;20178;-77
2022/11/12 00:55:33;;;;;;;2.20;1.50;;;;;;;;;;4963551;28;20177;-77
2022/11/12 00:57:58;;;;;;;1.43;1.33;;;;;;;;;;4970011;28;20177;-76
2022/11/12 01:00:24;;;;;;;1.50;1.40;;;;;;;;;;4970023;28;20181;-77
2022/11/12 01:02:49;;;;;;;3.37;2.20;;;;;;;;;;4954860;28;20295;-76
2022/11/12 01:05:14;;;;;;;1.40;1.30;;;;;;;;;;4948243;28;20187;-77
2022/11/12 01:07:40;;;;;;;2.00;1.30;;;;;;;;;;4951623;29;20174;-76
2022/11/12 01:10:05;;;;;;;2.33;1.30;;;;;;;;;;4955417;28;20237;-77
2022/11/12 01:12:31;;;;;;;1.53;1.43;;;;;;;;;;4954849;28;20190;-76
2022/11/12 01:14:56;;;;;;;1.30;1.20;;;;;;;;;;4970534;28;20177;-76
2022/11/12 01:17:21;;;;;;;2.33;2.13;;;;;;;;;;4953375;28;20273;-77
2022/11/12 01:19:47;;;;;;;1.23;1.17;;;;;;;;;;4956813;28;20194;-77
2022/11/12 01:22:12;;;;;;;1.50;1.40;;;;;;;;;;4954027;28;20256;-77
2022/11/12 01:24:37;;;;;;;1.43;1.30;;;;;;;;;;4954953;28;20185;-77
2022/11/12 01:27:02;;;;;;;1.40;1.30;;;;;;;;;;4955790;28;20185;-76
2022/11/12 01:29:27;;;;;;;2.57;1.50;;;;;;;;;;4955345;28;20215;-76
2022/11/12 01:31:53;;;;;;;1.30;1.20;;;;;;;;;;4954429;28;20189;-77
2022/11/12 01:34:18;;;;;;;1.37;1.27;;;;;;;;;;4953815;28;20213;-77
2022/11/12 01:36:43;;;;;;;1.90;1.23;;;;;;;;;;4954971;28;20170;-76
2022/11/12 01:39:08;;;;;;;3.50;1.23;;;;;;;;;;4954832;29;20177;-77
2022/11/12 01:41:35;;;;;;;1.17;1.07;;;;;;;;;;4952905;29;20178;-76
2022/11/12 01:44:18;;;;;;;1.20;1.10;;;;;;;;;;4953961;28;20188;-77
2022/11/12 01:47:02;;;;;;;1.20;1.10;;;;;;;;;;4967461;28;20235;-76
2022/11/12 01:49:31;;;;;;;1.43;1.33;;;;;;;;;;4968348;28;20232;-76
2022/11/12 01:52:00;;;;;;;1.23;1.00;;;;;;;;;;4952945;28;20186;-76
2022/11/12 01:54:25;;;;;;;1.23;1.13;;;;;;;;;;4954948;28;20237;-77
2022/11/12 01:56:51;;;;;;;1.00;1.00;;;;;;;;;;4953036;28;20193;-77
2022/11/12 01:59:18;;;;;;;1.07;1.07;;;;;;;;;;4955525;28;20219;-76
2022/11/12 02:01:44;;;;;;;1.53;1.00;;;;;;;;;;4952469;28;20249;-76
2022/11/12 02:04:09;;;;;;;1.37;1.27;;;;;;;;;;4953500;28;20198;-77
2022/11/12 02:06:35;;;;;;;1.23;1.13;;;;;;;;;;4951036;28;20189;-76
2022/11/12 02:09:00;;;;;;;1.20;1.10;;;;;;;;;;4968575;28;20212;-76
2022/11/12 02:11:25;;;;;;;1.00;1.00;;;;;;;;;;4953679;28;20184;-77
2022/11/12 02:13:59;;;;;;;1.30;1.00;;;;;;;;;;4954464;28;20183;-76
2022/11/12 02:16:35;;;;;;;0.70;0.70;;;;;;;;;;4953586;29;20178;-76
2022/11/12 02:19:01;;;;;;;0.90;0.90;;;;;;;;;;4953576;28;20183;-77
2022/11/12 02:21:28;;;;;;;1.10;1.10;;;;;;;;;;4951630;28;20181;-77
2022/11/12 02:23:57;;;;;;;2.23;1.47;;;;;;;;;;4954137;28;20243;-77
2022/11/12 02:26:23;;;;;;;0.80;0.80;;;;;;;;;;4964413;28;20216;-76
2022/11/12 02:28:48;;;;;;;0.80;0.80;;;;;;;;;;4955671;28;20244;-77
2022/11/12 02:31:13;;;;;;;1.00;1.00;;;;;;;;;;4950209;28;20193;-76
2022/11/12 02:33:38;;;;;;;1.00;1.00;;;;;;;;;;4953939;28;20199;-77
2022/11/12 02:36:04;;;;;;;1.17;0.80;;;;;;;;;;4951789;28;20196;-76
2022/11/12 02:38:29;;;;;;;1.00;1.00;;;;;;;;;;4953171;28;20178;-77
2022/11/12 02:40:54;;;;;;;1.27;1.17;;;;;;;;;;4969970;28;20185;-77
2022/11/12 02:43:19;;;;;;;1.03;0.97;;;;;;;;;;4954212;28;20218;-77
2022/11/12 02:45:45;;;;;;;0.83;0.83;;;;;;;;;;4953708;28;20203;-76
2022/11/12 02:48:10;;;;;;;1.00;1.00;;;;;;;;;;4953312;28;20185;-77
2022/11/12 02:50:35;;;;;;;1.20;1.10;;;;;;;;;;4953287;28;20286;-76
2022/11/12 02:53:01;;;;;;;0.90;0.90;;;;;;;;;;4951241;28;20224;-77
2022/11/12 02:55:26;;;;;;;0.87;0.87;;;;;;;;;;4952918;28;20221;-77
2022/11/12 02:57:55;;;;;;;0.80;0.80;;;;;;;;;;4967685;28;20275;-76
2022/11/12 03:00:21;;;;;;;2.40;1.60;;;;;;;;;;4952982;28;20276;-77
2022/11/12 03:02:57;;;;;;;1.93;0.97;;;;;;;;;;4951517;28;20291;-77
2022/11/12 03:05:23;;;;;;;1.40;1.30;;;;;;;;;;4965608;28;20226;-77
2022/11/12 03:07:48;;;;;;;1.17;1.07;;;;;;;;;;4950643;28;20211;-77
2022/11/12 03:10:13;;;;;;;0.73;0.73;;;;;;;;;;4951625;28;20311;-77
2022/11/12 03:12:39;;;;;;;2.17;0.97;;;;;;;;;;4967973;28;20192;-77
2022/11/12 03:15:04;;;;;;;1.00;1.00;;;;;;;;;;4968849;28;20180;-77
2022/11/12 03:17:29;;;;;;;1.00;1.00;;;;;;;;;;4967605;28;20187;-77
2022/11/12 03:19:54;;;;;;;0.80;0.80;;;;;;;;;;4950983;28;20189;-76
2022/11/12 03:22:20;;;;;;;1.20;0.90;;;;;;;;;;4952647;28;20242;-76
2022/11/12 03:24:45;;;;;;;2.33;1.10;;;;;;;;;;4949577;28;20182;-77
2022/11/12 03:27:10;;;;;;;1.03;1.00;;;;;;;;;;4952916;28;20188;-76
2022/11/12 03:29:35;;;;;;;1.00;0.90;;;;;;;;;;4968080;28;20204;-76
2022/11/12 03:32:00;;;;;;;1.20;1.17;;;;;;;;;;4953302;29;20185;-76
2022/11/12 03:34:26;;;;;;;1.10;1.00;;;;;;;;;;4960216;28;20251;-76
2022/11/12 03:36:51;;;;;;;1.20;1.10;;;;;;;;;;4964632;28;20210;-77
2022/11/12 03:39:16;;;;;;;1.00;1.00;;;;;;;;;;4952694;28;20212;-76
2022/11/12 03:41:41;;;;;;;1.30;1.20;;;;;;;;;;4949771;29;20181;-76
2022/11/12 03:44:06;;;;;;;1.23;1.13;;;;;;;;;;4949571;28;20193;-77
2022/11/12 03:46:31;;;;;;;1.20;1.10;;;;;;;;;;4968162;28;20240;-77
2022/11/12 03:48:58;;;;;;;1.17;1.07;;;;;;;;;;4951173;29;20194;-76
2022/11/12 03:51:23;;;;;;;1.23;1.13;;;;;;;;;;4951256;29;20186;-77
2022/11/12 03:53:49;;;;;;;1.23;1.17;;;;;;;;;;4951546;28;20180;-77
2022/11/12 03:56:14;;;;;;;3.00;1.27;;;;;;;;;;4951435;28;20189;-76
2022/11/12 03:58:39;;;;;;;1.30;1.20;;;;;;;;;;4950041;28;20183;-76
2022/11/12 04:01:04;;;;;;;1.40;1.30;;;;;;;;;;4949167;29;20191;-76
2022/11/12 04:03:29;;;;;;;1.40;1.30;;;;;;;;;;4951740;28;20211;-76
2022/11/12 04:08:39;;;;;;;3.97;1.50;;;;;;;;;;4952620;28;20203;-76
2022/11/12 04:11:12;;;;;;;3.03;1.47;;;;;;;;;;4968241;28;20284;-77
2022/11/12 04:13:38;;;;;;;1.30;1.20;;;;;;;;;;4952501;29;20193;-76
2022/11/12 04:21:51;;;;;;;1.63;1.40;;;;;;;;;;4948911;28;20269;-76
2022/11/12 04:27:04;;;;;;;1.40;1.30;;;;;;;;;;4951483;28;20265;-76
2022/11/12 04:32:14;;;;;;;1.60;1.50;;;;;;;;;;4951086;28;20202;-76
2022/11/12 04:34:39;;;;;;;2.93;1.97;;;;;;;;;;4966972;28;20187;-77
2022/11/12 04:37:05;;;;;;;1.67;1.47;;;;;;;;;;4967046;28;20192;-76
2022/11/12 04:39:30;;;;;;;1.60;1.50;;;;;;;;;;4950965;28;20178;-76
2022/11/12 04:47:23;;;;;;;1.30;1.20;;;;;;;;;;4950210;28;20264;-76
2022/11/12 04:49:48;;;;;;;1.50;1.40;;;;;;;;;;4950594;28;20316;-76
2022/11/12 04:52:14;;;;;;;2.37;1.80;;;;;;;;;;4950658;28;20184;-76
2022/11/12 04:54:39;;;;;;;1.43;1.33;;;;;;;;;;4950130;29;20249;-76
2022/11/12 04:57:04;;;;;;;1.50;1.40;;;;;;;;;;4950851;28;20190;-76
2022/11/12 04:59:29;;;;;;;1.60;1.50;;;;;;;;;;4950504;28;20180;-76
2022/11/12 05:01:54;;;;;;;1.70;1.40;;;;;;;;;;4951704;28;20193;-76
2022/11/12 05:04:20;;;;;;;1.50;1.40;;;;;;;;;;4948403;29;20241;-76
2022/11/12 05:06:51;;;;;;;1.53;1.30;;;;;;;;;;4950122;29;20195;-76
2022/11/12 05:09:21;;;;;;;3.30;1.40;;;;;;;;;;4949030;28;20244;-76
2022/11/12 05:11:46;;;;;;;1.50;1.40;;;;;;;;;;4954228;29;20185;-76
2022/11/12 05:14:11;;;;;;;2.17;1.60;;;;;;;;;;4971230;28;20184;-76
2022/11/12 05:16:37;;;;;;;1.40;1.30;;;;;;;;;;4956093;28;20181;-76
2022/11/12 05:19:02;;;;;;;1.20;1.10;;;;;;;;;;4954459;28;20175;-76
2022/11/12 05:24:11;;;;;;;2.90;1.80;;;;;;;;;;4952286;29;20190;-76
2022/11/12 05:26:36;;;;;;;1.50;1.40;;;;;;;;;;4955842;28;20181;-76
2022/11/12 05:29:02;;;;;;;1.70;1.60;;;;;;;;;;4953615;29;20175;-76
2022/11/12 05:31:27;;;;;;;1.47;1.30;;;;;;;;;;4954074;28;20232;-76
2022/11/12 05:33:52;;;;;;;1.63;1.53;;;;;;;;;;4954770;28;20185;-76
2022/11/12 05:36:18;;;;;;;1.30;1.20;;;;;;;;;;4955642;28;20275;-76
2022/11/12 05:38:43;;;;;;;1.80;1.70;;;;;;;;;;4952669;28;20275;-77
2022/11/12 05:41:08;;;;;;;1.60;1.50;;;;;;;;;;4953810;28;20190;-77
2022/11/12 05:43:33;;;;;;;1.17;1.17;;;;;;;;;;4953669;28;20256;-76
2022/11/12 05:45:58;;;;;;;1.97;1.87;;;;;;;;;;4951585;28;20206;-76
2022/11/12 05:48:24;;;;;;;1.97;1.50;;;;;;;;;;4952581;28;20190;-76
2022/11/12 05:50:52;;;;;;;1.30;1.20;;;;;;;;;;4951844;28;20227;-76
2022/11/12 05:53:17;;;;;;;1.40;1.30;;;;;;;;;;4954300;28;20274;-76
2022/11/12 05:55:43;;;;;;;1.50;1.40;;;;;;;;;;4954028;28;20263;-76
2022/11/12 05:58:08;;;;;;;1.40;1.30;;;;;;;;;;4952846;28;20324;-76
2022/11/12 06:00:37;;;;;;;1.40;1.30;;;;;;;;;;4953599;28;20193;-76
2022/11/12 06:03:03;;;;;;;1.40;1.30;;;;;;;;;;4953899;28;20193;-77
2022/11/12 06:05:28;;;;;;;1.33;1.20;;;;;;;;;;4952806;28;20253;-76
2022/11/12 06:07:54;;;;;;;1.43;1.33;;;;;;;;;;4952566;28;20267;-77
2022/11/12 06:10:19;;;;;;;1.27;1.20;;;;;;;;;;4971578;28;20212;-76
2022/11/12 06:12:44;;;;;;;1.20;1.10;;;;;;;;;;4953055;28;20176;-76
2022/11/12 06:15:09;;;;;;;3.43;2.90;;;;;;;;;;4952501;28;20191;-76
2022/11/12 06:17:34;;;;;;;1.43;1.30;;;;;;;;;;4950034;28;20263;-77
2022/11/12 06:20:00;;;;;;;1.20;1.10;;;;;;;;;;4961943;28;20191;-76
2022/11/12 06:22:25;;;;;;;1.77;1.67;;;;;;;;;;4963032;28;20189;-76
2022/11/12 06:24:50;;;;;;;1.40;1.30;;;;;;;;;;4948702;28;20227;-76
2022/11/12 06:27:15;;;;;;;1.83;1.33;;;;;;;;;;4963382;28;20271;-76
2022/11/12 06:29:40;;;;;;;1.33;1.23;;;;;;;;;;4949342;28;21228;-76
2022/11/12 06:32:06;;;;;;;3.03;1.20;;;;;;;;;;4950239;28;20178;-76
2022/11/12 06:34:31;;;;;;;2.67;1.50;;;;;;;;;;4946525;28;20239;-77
2022/11/12 06:36:56;;;;;;;1.60;1.50;;;;;;;;;;4952096;28;20177;-77
2022/11/12 06:39:21;;;;;;;1.77;1.50;;;;;;;;;;4951187;28;20253;-77
2022/11/12 06:41:46;;;;;;;1.60;1.50;;;;;;;;;;4952762;28;20188;-76
2022/11/12 06:44:11;;;;;;;1.50;1.40;;;;;;;;;;4945220;28;20243;-76
2022/11/12 06:46:37;;;;;;;1.60;1.30;;;;;;;;;;4948483;28;20195;-76
2022/11/12 06:49:02;;;;;;;1.60;1.43;;;;;;;;;;4948400;28;20191;-77
2022/11/12 06:51:27;;;;;;;1.30;1.17;;;;;;;;;;4965796;28;20181;-76
2022/11/12 06:53:54;;;;;;;1.33;1.20;;;;;;;;;;4950494;28;20205;-76
2022/11/12 06:56:19;;;;;;;4.73;1.20;;;;;;;;;;4966131;28;20189;-77
2022/11/12 06:58:45;;;;;;;2.10;2.00;;;;;;;;;;4950340;28;20187;-76
2022/11/12 07:01:11;;;;;;;1.20;1.20;;;;;;;;;;4961921;28;20189;-76
2022/11/12 07:03:37;;;;;;;1.87;1.43;;;;;;;;;;4963294;28;20240;-77
2022/11/12 07:06:04;;;;;;;2.13;1.40;;;;;;;;;;4946904;28;20186;-77
2022/11/12 07:08:29;;;;;;;1.57;1.20;;;;;;;;;;4949378;28;20185;-76
2022/11/12 07:10:55;;;;;;;3.77;2.67;;;;;;;;;;4951474;29;20340;-75
2022/11/12 07:13:20;;;;;;;2.67;1.77;;;;;;;;;;4949569;28;20212;-76
2022/11/12 07:15:46;;;;;;;2.17;1.97;;;;;;;;;;4950893;28;20200;-76
2022/11/12 07:18:11;;;;;;;1.70;1.60;;;;;;;;;;4964810;28;20173;-76
2022/11/12 07:20:36;;;;;;;1.90;1.70;;;;;;;;;;4951264;28;20223;-76
2022/11/12 07:23:01;;;;;;;1.40;1.30;;;;;;;;;;4951525;28;20191;-76
2022/11/12 07:25:27;;;;;;;1.33;1.23;;;;;;;;;;4966838;28;20177;-76
2022/11/12 07:27:52;;;;;;;3.70;1.50;;;;;;;;;;4952417;29;20181;-76
2022/11/12 07:30:17;;;;;;;1.80;1.50;;;;;;;;;;4963544;28;20213;-76
2022/11/12 07:32:42;;;;;;;3.10;1.60;;;;;;;;;;4950016;28;20185;-76
2022/11/12 07:35:08;;;;;;;3.40;2.30;;;;;;;;;;4950496;28;20171;-76
2022/11/12 07:37:34;;;;;;;1.87;1.73;;;;;;;;;;4951747;29;20304;-76
2022/11/12 07:39:59;;;;;;;1.50;1.30;;;;;;;;;;4947271;28;20203;-76
2022/11/12 07:42:24;;;;;;;1.80;1.30;;;;;;;;;;4948527;28;20199;-76
2022/11/12 07:44:49;;;;;;;1.20;1.10;;;;;;;;;;4948754;28;20200;-76
2022/11/12 07:47:15;;;;;;;2.37;1.60;;;;;;;;;;4962968;28;20192;-76
2022/11/12 07:49:40;;;;;;;1.00;1.00;;;;;;;;;;4948889;29;20335;-76
2022/11/12 07:52:05;;;;;;;1.50;1.33;;;;;;;;;;4970015;28;20187;-76
2022/11/12 07:54:30;;;;;;;1.27;1.17;;;;;;;;;;4963955;28;20193;-76
2022/11/12 07:56:55;;;;;;;1.13;1.13;;;;;;;;;;4951393;28;20200;-76
2022/11/12 07:59:21;;;;;;;1.13;1.10;;;;;;;;;;4950000;29;20201;-76
2022/11/12 08:01:46;;;;;;;1.37;1.20;;;;;;;;;;4949233;28;20247;-76
2022/11/12 08:04:11;;;;;;;1.50;1.40;;;;;;;;;;4965383;28;20185;-76
2022/11/12 08:06:37;;;;;;;4.30;1.20;;;;;;;;;;4950332;28;20177;-76
2022/11/12 08:09:03;;;;;;;0.97;0.97;;;;;;;;;;4948741;28;20181;-76
2022/11/12 08:11:28;;;;;;;1.43;1.00;;;;;;;;;;4951143;28;20178;-76
2022/11/12 08:13:54;;;;;;;1.10;1.07;;;;;;;;;;4964482;28;20216;-76
2022/11/12 08:16:19;;;;;;;1.20;1.10;;;;;;;;;;4951972;28;20289;-76
2022/11/12 08:18:44;;;;;;;1.40;1.30;;;;;;;;;;4950444;28;20180;-76
2022/11/12 08:21:11;;;;;;;1.80;1.70;;;;;;;;;;4949146;28;20185;-76
2022/11/12 08:23:36;;;;;;;1.50;1.40;;;;;;;;;;4946800;28;20192;-76
2022/11/12 08:26:05;;;;;;;1.33;1.20;;;;;;;;;;4968025;28;20181;-76
2022/11/12 08:28:32;;;;;;;1.47;1.37;;;;;;;;;;4952720;28;20185;-76
2022/11/12 08:30:57;;;;;;;1.50;1.40;;;;;;;;;;4948720;28;20219;-76
2022/11/12 08:33:23;;;;;;;1.67;1.20;;;;;;;;;;4952219;29;20174;-76
2022/11/12 08:35:49;;;;;;;1.20;1.10;;;;;;;;;;4948234;28;20236;-75
2022/11/12 08:38:15;;;;;;;3.50;1.20;;;;;;;;;;4964741;28;20181;-76
2022/11/12 08:40:40;;;;;;;1.83;1.30;;;;;;;;;;4952855;28;20240;-76
2022/11/12 08:43:07;;;;;;;1.30;1.20;;;;;;;;;;4962063;28;20185;-76
2022/11/12 08:45:33;;;;;;;1.40;1.30;;;;;;;;;;4950997;28;20513;-76
2022/11/12 08:47:59;;;;;;;1.47;1.37;;;;;;;;;;4954108;28;20283;-76
2022/11/12 08:50:24;;;;;;;1.43;1.23;;;;;;;;;;4969082;28;20239;-75
2022/11/12 08:52:49;;;;;;;1.53;1.30;;;;;;;;;;4954434;28;20178;-76
2022/11/12 08:55:15;;;;;;;1.50;1.40;;;;;;;;;;4955444;28;20182;-76
2022/11/12 08:57:43;;;;;;;1.57;1.13;;;;;;;;;;4955134;28;20177;-76
2022/11/12 09:00:09;;;;;;;4.17;1.20;;;;;;;;;;4954195;28;20182;-76
2022/11/12 09:02:35;;;;;;;1.03;1.03;;;;;;;;;;4953109;28;20193;-76
2022/11/12 09:05:00;;;;;;;1.20;1.10;;;;;;;;;;4952940;28;20185;-76
2022/11/12 09:07:25;;;;;;;1.20;1.10;;;;;;;;;;4944707;28;20185;-76
2022/11/12 09:09:50;;;;;;;1.40;1.30;;;;;;;;;;4954747;28;20197;-76
2022/11/12 09:12:18;;;;;;;2.53;1.17;;;;;;;;;;4953720;28;20193;-76
2022/11/12 09:14:43;;;;;;;1.20;1.10;;;;;;;;;;4953500;28;20244;-76
2022/11/12 09:17:08;;;;;;;2.30;1.27;;;;;;;;;;4953452;28;20249;-76
2022/11/12 09:19:33;;;;;;;1.43;1.33;;;;;;;;;;4954466;28;20217;-76
2022/11/12 09:21:59;;;;;;;1.30;1.20;;;;;;;;;;4953748;28;20195;-76
2022/11/12 09:24:24;;;;;;;1.30;1.20;;;;;;;;;;4954415;28;20187;-76
2022/11/12 09:26:51;;;;;;;1.33;1.23;;;;;;;;;;4955260;28;20209;-76
2022/11/12 09:29:16;;;;;;;1.53;1.30;;;;;;;;;;4969752;28;20189;-76
2022/11/12 09:31:41;;;;;;;1.47;1.37;;;;;;;;;;4966825;28;20187;-76
2022/11/12 09:34:07;;;;;;;6.33;1.53;;;;;;;;;;4955760;28;20178;-76
2022/11/12 09:36:32;;;;;;;3.67;1.50;;;;;;;;;;4968417;28;20197;-76
2022/11/12 09:38:57;;;;;;;1.60;1.50;;;;;;;;;;4955099;28;20186;-76
2022/11/12 09:41:26;;;;;;;1.57;1.47;;;;;;;;;;4965180;28;20230;-76
2022/11/12 09:43:52;;;;;;;3.60;2.87;;;;;;;;;;4951246;28;20190;-76
2022/11/12 09:46:22;;;;;;;1.53;1.43;;;;;;;;;;4953556;28;20184;-76
2022/11/12 09:48:52;;;;;;;1.03;1.03;;;;;;;;;;4950748;28;20195;-76
2022/11/12 09:51:23;;;;;;;1.43;1.33;;;;;;;;;;4948183;28;20237;-76
2022/11/12 09:53:58;;;;;;;2.63;1.30;;;;;;;;;;4949924;28;20192;-76
2022/11/12 09:56:24;;;;;;;1.90;1.43;;;;;;;;;;4951575;28;20192;-76
2022/11/12 09:58:50;;;;;;;1.73;1.50;;;;;;;;;;4970073;28;20218;-76
2022/11/12 10:01:18;;;;;;;1.30;1.20;;;;;;;;;;4954735;28;20253;-76
2022/11/12 10:04:02;;;;;;;1.30;1.20;;;;;;;;;;4952708;28;20181;-76
2022/11/12 10:06:33;;;;;;;1.50;1.30;;;;;;;;;;4951820;28;20199;-76
2022/11/12 10:09:04;;;;;;;1.40;1.20;;;;;;;;;;4952516;28;20239;-76
2022/11/12 10:11:30;;;;;;;1.50;1.40;;;;;;;;;;4950946;28;20184;-76
2022/11/12 10:14:07;;;;;;;1.20;1.10;;;;;;;;;;4953515;28;20203;-76
2022/11/12 10:16:41;;;;;;;1.50;1.40;;;;;;;;;;4969631;28;20179;-76
2022/11/12 10:19:33;;;;;;;4.47;2.97;;;;;;;;;;4955282;28;20182;-76
2022/11/12 10:22:10;;;;;;;7.33;4.13;;;;;;;;;;4954164;28;20189;-76
2022/11/12 10:24:36;;;;;;;3.00;2.70;;;;;;;;;;4950693;28;20275;-76
2022/11/12 10:27:11;;;;;;;4.20;2.07;;;;;;;;;;4952255;28;20237;-76
2022/11/12 10:29:45;;;;;;;2.07;1.87;;;;;;;;;;4949452;29;20286;-76
2022/11/12 10:32:13;;;;;;;3.13;1.70;;;;;;;;;;4963834;28;20230;-76
2022/11/12 10:34:39;;;;;;;1.97;1.83;;;;;;;;;;4949019;28;20187;-76
2022/11/12 10:37:23;;;;;;;2.10;2.00;;;;;;;;;;4953159;28;20178;-76
2022/11/12 10:39:49;;;;;;;3.07;2.20;;;;;;;;;;4966762;28;20179;-76
2022/11/12 10:42:15;;;;;;;2.23;1.80;;;;;;;;;;4967582;28;20185;-76
2022/11/12 10:44:42;;;;;;;3.27;2.13;;;;;;;;;;4949569;28;20212;-76
2022/11/12 10:47:19;;;;;;;2.50;2.30;;;;;;;;;;4965994;28;20213;-76
2022/11/12 10:50:00;;;;;;;3.80;2.80;;;;;;;;;;4967900;28;20236;-76
2022/11/12 10:52:25;;;;;;;3.27;2.97;;;;;;;;;;4951128;28;20209;-76
2022/11/12 10:55:03;;;;;;;3.30;2.93;;;;;;;;;;4951671;29;20261;-76
2022/11/12 10:57:28;;;;;;;5.50;3.97;;;;;;;;;;4952096;28;20328;-76
2022/11/12 11:00:11;;;;;;;3.10;2.80;;;;;;;;;;4951198;28;20272;-76
2022/11/12 11:02:44;;;;;;;4.90;3.27;;;;;;;;;;4965313;28;20188;-76
2022/11/12 11:05:26;;;;;;;4.80;3.03;;;;;;;;;;4947970;29;20203;-76
2022/11/12 11:07:51;;;;;;;6.70;3.20;;;;;;;;;;4948833;28;20189;-76
2022/11/12 11:10:28;;;;;;;5.33;4.10;;;;;;;;;;4951430;28;20204;-76
2022/11/12 11:13:12;;;;;;;4.13;3.20;;;;;;;;;;4952743;29;20186;-76
2022/11/12 11:15:38;;;;;;;3.63;3.03;;;;;;;;;;4968731;28;20206;-76
2022/11/12 11:18:03;;;;;;;4.00;3.60;;;;;;;;;;4952931;28;20213;-76
2022/11/12 11:20:37;;;;;;;3.50;3.20;;;;;;;;;;4949754;28;20191;-76
2022/11/12 11:23:05;;;;;;;4.87;4.37;;;;;;;;;;4946651;29;20318;-76
2022/11/12 11:25:32;;;;;;;3.83;3.50;;;;;;;;;;4949062;28;20240;-76
2022/11/12 11:27:57;;;;;;;3.17;2.83;;;;;;;;;;4950957;29;20181;-76
2022/11/12 11:30:22;;;;;;;3.77;3.37;;;;;;;;;;4950404;28;20259;-76
2022/11/12 11:33:06;;;;;;;5.67;3.97;;;;;;;;;;4966315;28;20186;-76
2022/11/12 11:35:46;;;;;;;3.73;3.37;;;;;;;;;;4963768;28;20206;-75
2022/11/12 11:38:30;;;;;;;3.97;3.40;;;;;;;;;;4947049;28;20182;-76
2022/11/12 11:41:14;;;;;;;3.33;3.00;;;;;;;;;;4966479;28;20215;-76
2022/11/12 11:43:45;;;;;;;3.50;2.93;;;;;;;;;;4963545;28;20253;-76
2022/11/12 11:46:16;;;;;;;3.53;3.23;;;;;;;;;;4951369;29;20276;-76
2022/11/12 11:48:59;;;;;;;3.90;3.50;;;;;;;;;;4954729;28;20188;-76
2022/11/12 11:51:43;;;;;;;3.20;2.90;;;;;;;;;;4967477;28;20264;-76
2022/11/12 11:54:27;;;;;;;3.67;3.10;;;;;;;;;;4952492;28;20181;-76
2022/11/12 11:56:55;;;;;;;3.50;3.13;;;;;;;;;;4965416;28;20185;-76
2022/11/12 11:59:44;;;;;;;6.30;3.40;;;;;;;;;;4949785;28;20196;-76
2022/11/12 12:02:15;;;;;;;3.43;3.10;;;;;;;;;;4965305;28;20166;-76
2022/11/12 12:04:41;;;;;;;3.43;3.13;;;;;;;;;;4966264;28;20182;-76
2022/11/12 12:07:15;;;;;;;4.13;3.27;;;;;;;;;;4966325;28;20192;-76
2022/11/12 12:09:47;;;;;;;4.07;3.60;;;;;;;;;;4949897;29;20290;-76
2022/11/12 12:12:18;;;;;;;5.40;3.97;;;;;;;;;;4949991;28;20234;-76
2022/11/12 12:14:46;;;;;;;3.77;3.47;;;;;;;;;;4948921;28;20178;-76
2022/11/12 12:17:21;;;;;;;4.23;3.77;;;;;;;;;;4964316;28;20213;-74
2022/11/12 12:19:58;;;;;;;3.90;3.57;;;;;;;;;;4958815;28;20228;-73
2022/11/12 12:22:29;;;;;;;3.10;2.77;;;;;;;;;;4955151;28;20212;-74
2022/11/12 12:24:56;;;;;;;3.67;3.37;;;;;;;;;;4949324;28;20177;-74
2022/11/12 12:27:30;;;;;;;4.03;3.63;;;;;;;;;;4953747;28;20216;-74
2022/11/12 12:30:00;;;;;;;10.20;9.30;;;;;;;;;;4953333;28;20297;-73
2022/11/12 12:32:28;;;;;;;3.67;3.37;;;;;;;;;;4948183;28;20176;-73
2022/11/12 12:35:12;;;;;;;4.00;3.63;;;;;;;;;;4954669;28;20257;-73
2022/11/12 12:37:45;;;;;;;5.77;3.63;;;;;;;;;;4950496;28;20188;-74
2022/11/12 12:40:19;;;;;;;3.67;3.27;;;;;;;;;;4953492;28;20192;-73
2022/11/12 12:42:56;;;;;;;3.93;3.60;;;;;;;;;;4949808;28;20189;-73
2022/11/12 12:45:37;;;;;;;4.33;3.13;;;;;;;;;;4950859;29;20229;-73
2022/11/12 12:48:04;;;;;;;3.73;3.33;;;;;;;;;;4970035;28;20214;-74
2022/11/12 12:50:29;;;;;;;4.47;3.70;;;;;;;;;;4968239;28;21532;-73
2022/11/12 12:53:24;;;;;;;4.70;3.73;;;;;;;;;;4952071;28;20270;-74
2022/11/12 12:55:50;;;;;;;3.70;3.30;;;;;;;;;;4940290;28;20193;-74
2022/11/12 12:58:31;;;;;;;6.27;3.90;;;;;;;;;;4952370;28;20217;-74
2022/11/12 13:00:59;;;;;;;4.37;4.07;;;;;;;;;;4970526;28;20188;-73
2022/11/12 13:03:43;;;;;;;4.70;3.40;;;;;;;;;;4968121;28;20225;-73
2022/11/12 13:06:24;;;;;;;8.70;4.33;;;;;;;;;;4954354;29;20198;-74
2022/11/12 13:08:52;;;;;;;5.27;4.77;;;;;;;;;;4969592;28;20272;-74
2022/11/12 13:12:20;;;;;;;3.80;3.50;;;;;;;;;;4951614;29;20324;-73
2022/11/12 13:14:30;;;;;;;3.60;3.30;;;;;;;;;;4944675;28;20202;-73
2022/11/12 13:17:02;;;;;;;4.00;3.60;;;;;;;;;;4968891;28;20184;-73
2022/11/12 13:19:37;;;;;;;4.67;4.20;;;;;;;;;;4951562;28;20178;-74
2022/11/12 13:22:18;;;;;;;3.93;3.53;;;;;;;;;;4966426;28;20186;-73
2022/11/12 13:25:02;;;;;;;4.30;3.60;;;;;;;;;;4964014;28;20179;-73
2022/11/12 13:27:42;;;;;;;4.70;4.30;;;;;;;;;;4967121;28;20232;-73
2022/11/12 13:30:13;;;;;;;4.20;3.90;;;;;;;;;;4967967;28;20210;-73
2022/11/12 13:32:48;;;;;;;6.10;4.27;;;;;;;;;;4962326;28;20189;-73
2022/11/12 13:35:33;;;;;;;5.67;4.67;;;;;;;;;;4967929;28;20228;-73
2022/11/12 13:38:18;;;;;;;5.03;4.50;;;;;;;;;;4969735;28;20188;-74
2022/11/12 13:40:44;;;;;;;5.33;4.83;;;;;;;;;;4950675;28;20249;-74
2022/11/12 13:43:11;;;;;;;5.53;3.57;;;;;;;;;;4966289;28;20187;-74
2022/11/12 13:45:39;;;;;;;4.53;4.13;;;;;;;;;;4954461;28;20213;-73
2022/11/12 13:48:06;;;;;;;7.83;5.17;;;;;;;;;;4955698;28;20192;-73
2022/11/12 13:50:31;;;;;;;5.23;4.77;;;;;;;;;;4963305;28;20300;-74
2022/11/12 13:52:57;;;;;;;5.03;4.53;;;;;;;;;;4950307;28;20272;-74
2022/11/12 13:55:23;;;;;;;4.57;4.17;;;;;;;;;;4969586;28;20189;-73
2022/11/12 13:57:51;;;;;;;4.73;4.00;;;;;;;;;;4954328;29;20258;-74
2022/11/12 14:00:17;;;;;;;5.20;4.30;;;;;;;;;;4951477;28;20224;-74
2022/11/12 14:03:08;;;;;;;5.50;4.43;;;;;;;;;;4952278;29;20222;-73
2022/11/12 14:05:34;;;;;;;4.67;3.90;;;;;;;;;;4948382;28;20190;-74
2022/11/12 14:08:18;;;;;;;4.67;3.90;;;;;;;;;;4966645;28;20190;-73
2022/11/12 14:11:02;;;;;;;5.43;4.93;;;;;;;;;;4962797;28;20258;-74
2022/11/12 14:13:27;;;;;;;8.20;7.40;;;;;;;;;;4951742;28;20226;-74
2022/11/12 14:16:01;;;;;;;4.90;4.50;;;;;;;;;;4952462;28;20190;-73
2022/11/12 14:18:35;;;;;;;5.60;4.97;;;;;;;;;;4953276;28;20190;-73
2022/11/12 14:21:04;;;;;;;5.30;4.80;;;;;;;;;;4955216;28;20174;-73
2022/11/12 14:23:29;;;;;;;5.50;5.10;;;;;;;;;;4966365;28;20194;-73
2022/11/12 14:25:55;;;;;;;6.70;6.00;;;;;;;;;;4967960;28;20232;-73
2022/11/12 14:28:26;;;;;;;6.50;6.00;;;;;;;;;;4953056;28;20204;-73
2022/11/12 14:30:52;;;;;;;7.63;6.77;;;;;;;;;;4953452;29;20237;-74
2022/11/12 14:33:18;;;;;;;9.23;8.43;;;;;;;;;;4966548;28;20216;-73
2022/11/12 14:35:44;;;;;;;7.43;6.83;;;;;;;;;;4952532;28;20175;-73
2022/11/12 14:38:28;;;;;;;7.60;6.00;;;;;;;;;;4953172;28;20176;-74
2022/11/12 14:40:54;;;;;;;6.33;5.73;;;;;;;;;;4966920;28;20191;-74
2022/11/12 14:43:38;;;;;;;10.70;7.17;;;;;;;;;;4967815;28;20182;-74
2022/11/12 14:46:05;;;;;;;5.60;5.10;;;;;;;;;;4967884;28;20202;-73
2022/11/12 14:48:33;;;;;;;5.53;5.03;;;;;;;;;;4952840;28;20184;-73
2022/11/12 14:51:02;;;;;;;5.30;4.80;;;;;;;;;;4950505;29;20225;-73
2022/11/12 14:53:32;;;;;;;7.17;6.40;;;;;;;;;;4952788;29;20189;-74
2022/11/12 14:55:59;;;;;;;6.37;5.77;;;;;;;;;;4952094;28;20233;-74
2022/11/12 14:58:26;;;;;;;6.73;6.13;;;;;;;;;;4950202;29;20185;-73
2022/11/12 15:00:52;;;;;;;6.40;5.87;;;;;;;;;;4950510;29;20193;-73
2022/11/12 15:03:22;;;;;;;5.67;5.17;;;;;;;;;;4952541;29;20243;-73
2022/11/12 15:05:51;;;;;;;5.77;5.30;;;;;;;;;;4948443;28;20185;-73
2022/11/12 15:08:26;;;;;;;7.23;6.60;;;;;;;;;;4951486;29;20191;-73
2022/11/12 15:10:52;;;;;;;6.27;5.77;;;;;;;;;;4953931;28;20208;-73
2022/11/12 15:13:18;;;;;;;7.07;6.30;;;;;;;;;;4956918;28;20189;-74